sensor_id;sensor_type;location;lat;lon;timestamp;P1;durP1;ratioP1;P2;durP2;ratioP2
22417;SDS011;11376;50.932;4.442;2022-12-26T00:01:29;18.17;;;9.97;;
22417;SDS011;11376;50.932;4.442;2022-12-26T00:03:56;17.90;;;10.13;;
22417;SDS011;11376;50.932;4.442;2022-12-26T00:06:23;15.37;;;9.20;;
22417;SDS011;11376;50.932;4.442;2022-12-26T00:08:50;17.33;;;9.63;;
22417;SDS011;11376;50.932;4.442;2022-12-26T00:11:16;15.33;;;9.30;;
22417;SDS011;11376;50.932;4.442;2022-12-26T00:13:42;15.90;;;9.40;;
22417;SDS011;11376;50.932;4.442;2022-12-26T00:16:09;14.87;;;9.43;;
22417;SDS011;11376;50.932;4.442;2022-12-26T00:18:37;13.53;;;8.33;;
22417;SDS011;11376;50.932;4.442;2022-12-26T00:21:03;12.00;;;7.47;;
22417;SDS011;11376;50.932;4.442;2022-12-26T00:23:30;14.77;;;8.57;;
22417;SDS011;11376;50.932;4.442;2022-12-26T00:26:00;13.63;;;8.17;;
22417;SDS011;11376;50.932;4.442;2022-12-26T00:28:29;14.17;;;8.57;;
22417;SDS011;11376;50.932;4.442;2022-12-26T00:30:55;13.33;;;8.87;;
22417;SDS011;11376;50.932;4.442;2022-12-26T00:33:20;8.87;;;5.93;;
22417;SDS011;11376;50.932;4.442;2022-12-26T00:35:46;13.37;;;8.50;;
22417;SDS011;11376;50.932;4.442;2022-12-26T00:38:11;13.43;;;7.33;;
22417;SDS011;11376;50.932;4.442;2022-12-26T00:40:37;12.27;;;7.60;;
22417;SDS011;11376;50.932;4.442;2022-12-26T00:43:07;14.50;;;9.23;;
22417;SDS011;11376;50.932;4.442;2022-12-26T00:45:36;12.77;;;8.53;;
22417;SDS011;11376;50.932;4.442;2022-12-26T00:48:01;16.07;;;8.80;;
22417;SDS011;11376;50.932;4.442;2022-12-26T00:50:27;12.10;;;8.10;;
22417;SDS011;11376;50.932;4.442;2022-12-26T00:52:53;12.90;;;8.40;;
22417;SDS011;11376;50.932;4.442;2022-12-26T00:55:21;13.67;;;8.83;;
22417;SDS011;11376;50.932;4.442;2022-12-26T00:57:46;9.07;;;5.07;;
22417;SDS011;11376;50.932;4.442;2022-12-26T01:00:12;11.10;;;7.57;;
22417;SDS011;11376;50.932;4.442;2022-12-26T01:02:38;12.03;;;8.27;;
22417;SDS011;11376;50.932;4.442;2022-12-26T01:05:08;11.07;;;6.73;;
22417;SDS011;11376;50.932;4.442;2022-12-26T01:07:36;10.37;;;7.27;;
22417;SDS011;11376;50.932;4.442;2022-12-26T01:10:03;11.40;;;8.03;;
22417;SDS011;11376;50.932;4.442;2022-12-26T01:12:30;10.27;;;6.90;;
22417;SDS011;11376;50.932;4.442;2022-12-26T01:14:56;10.00;;;6.40;;
22417;SDS011;11376;50.932;4.442;2022-12-26T01:17:24;11.40;;;7.20;;
22417;SDS011;11376;50.932;4.442;2022-12-26T01:19:51;8.23;;;5.37;;
22417;SDS011;11376;50.932;4.442;2022-12-26T01:22:17;9.77;;;6.90;;
22417;SDS011;11376;50.932;4.442;2022-12-26T01:24:42;7.47;;;5.20;;
22417;SDS011;11376;50.932;4.442;2022-12-26T01:27:08;9.17;;;5.83;;
22417;SDS011;11376;50.932;4.442;2022-12-26T01:29:33;9.63;;;5.70;;
22417;SDS011;11376;50.932;4.442;2022-12-26T01:31:59;7.97;;;5.07;;
22417;SDS011;11376;50.932;4.442;2022-12-26T01:34:25;8.33;;;4.77;;
22417;SDS011;11376;50.932;4.442;2022-12-26T01:36:51;8.37;;;4.80;;
22417;SDS011;11376;50.932;4.442;2022-12-26T01:39:17;6.90;;;4.20;;
22417;SDS011;11376;50.932;4.442;2022-12-26T01:41:43;6.00;;;3.97;;
22417;SDS011;11376;50.932;4.442;2022-12-26T01:47:12;9.17;;;5.97;;
22417;SDS011;11376;50.932;4.442;2022-12-26T01:49:45;7.20;;;4.60;;
22417;SDS011;11376;50.932;4.442;2022-12-26T01:52:15;9.47;;;5.30;;
22417;SDS011;11376;50.932;4.442;2022-12-26T01:54:49;10.60;;;6.33;;
22417;SDS011;11376;50.932;4.442;2022-12-26T01:57:21;8.83;;;5.80;;
22417;SDS011;11376;50.932;4.442;2022-12-26T01:59:50;9.40;;;6.40;;
22417;SDS011;11376;50.932;4.442;2022-12-26T02:02:17;9.37;;;5.77;;
22417;SDS011;11376;50.932;4.442;2022-12-26T02:04:45;12.47;;;6.80;;
22417;SDS011;11376;50.932;4.442;2022-12-26T02:07:33;11.43;;;6.60;;
22417;SDS011;11376;50.932;4.442;2022-12-26T02:10:01;11.33;;;7.10;;
22417;SDS011;11376;50.932;4.442;2022-12-26T02:12:28;17.10;;;8.93;;
22417;SDS011;11376;50.932;4.442;2022-12-26T02:14:55;14.17;;;8.73;;
22417;SDS011;11376;50.932;4.442;2022-12-26T02:17:21;16.13;;;8.97;;
22417;SDS011;11376;50.932;4.442;2022-12-26T02:31:30;14.80;;;8.73;;
22417;SDS011;11376;50.932;4.442;2022-12-26T02:42:42;13.13;;;8.17;;
22417;SDS011;11376;50.932;4.442;2022-12-26T02:45:25;11.27;;;6.67;;
22417;SDS011;11376;50.932;4.442;2022-12-26T02:55:00;11.20;;;6.20;;
22417;SDS011;11376;50.932;4.442;2022-12-26T02:57:57;7.50;;;4.23;;
22417;SDS011;11376;50.932;4.442;2022-12-26T03:00:46;8.87;;;4.77;;
22417;SDS011;11376;50.932;4.442;2022-12-26T03:03:34;8.40;;;4.27;;
22417;SDS011;11376;50.932;4.442;2022-12-26T03:06:22;5.53;;;2.93;;
22417;SDS011;11376;50.932;4.442;2022-12-26T03:09:15;6.70;;;3.43;;
22417;SDS011;11376;50.932;4.442;2022-12-26T03:12:07;7.60;;;3.40;;
22417;SDS011;11376;50.932;4.442;2022-12-26T03:15:02;6.60;;;3.13;;
22417;SDS011;11376;50.932;4.442;2022-12-26T03:20:11;4.93;;;2.50;;
22417;SDS011;11376;50.932;4.442;2022-12-26T03:22:42;5.10;;;3.00;;
22417;SDS011;11376;50.932;4.442;2022-12-26T03:28:31;4.47;;;1.93;;
22417;SDS011;11376;50.932;4.442;2022-12-26T03:30:57;4.33;;;2.10;;
22417;SDS011;11376;50.932;4.442;2022-12-26T03:33:27;5.03;;;2.30;;
22417;SDS011;11376;50.932;4.442;2022-12-26T03:36:14;4.20;;;1.87;;
22417;SDS011;11376;50.932;4.442;2022-12-26T03:38:56;3.60;;;1.50;;
22417;SDS011;11376;50.932;4.442;2022-12-26T03:44:56;4.80;;;2.40;;
22417;SDS011;11376;50.932;4.442;2022-12-26T03:48:07;4.13;;;2.10;;
22417;SDS011;11376;50.932;4.442;2022-12-26T03:51:06;5.23;;;2.70;;
22417;SDS011;11376;50.932;4.442;2022-12-26T03:54:11;3.97;;;1.80;;
22417;SDS011;11376;50.932;4.442;2022-12-26T03:57:07;3.67;;;2.20;;
22417;SDS011;11376;50.932;4.442;2022-12-26T04:00:05;4.87;;;2.70;;
22417;SDS011;11376;50.932;4.442;2022-12-26T04:02:52;6.00;;;2.73;;
22417;SDS011;11376;50.932;4.442;2022-12-26T04:05:41;4.70;;;2.83;;
22417;SDS011;11376;50.932;4.442;2022-12-26T04:08:40;5.57;;;2.40;;
22417;SDS011;11376;50.932;4.442;2022-12-26T04:11:33;3.53;;;2.07;;
22417;SDS011;11376;50.932;4.442;2022-12-26T04:23:59;4.63;;;2.00;;
22417;SDS011;11376;50.932;4.442;2022-12-26T04:26:50;4.40;;;2.40;;
22417;SDS011;11376;50.932;4.442;2022-12-26T04:29:37;4.73;;;2.30;;
22417;SDS011;11376;50.932;4.442;2022-12-26T04:33:05;5.63;;;2.80;;
22417;SDS011;11376;50.932;4.442;2022-12-26T04:35:32;4.57;;;2.30;;
22417;SDS011;11376;50.932;4.442;2022-12-26T04:38:23;4.03;;;2.37;;
22417;SDS011;11376;50.932;4.442;2022-12-26T04:41:11;4.43;;;2.20;;
22417;SDS011;11376;50.932;4.442;2022-12-26T04:43:57;3.57;;;1.80;;
22417;SDS011;11376;50.932;4.442;2022-12-26T04:46:39;3.83;;;2.20;;
22417;SDS011;11376;50.932;4.442;2022-12-26T04:49:08;3.17;;;2.07;;
22417;SDS011;11376;50.932;4.442;2022-12-26T04:51:55;3.77;;;2.37;;
22417;SDS011;11376;50.932;4.442;2022-12-26T04:54:21;3.77;;;2.13;;
22417;SDS011;11376;50.932;4.442;2022-12-26T04:56:47;5.20;;;2.80;;
22417;SDS011;11376;50.932;4.442;2022-12-26T04:59:13;2.50;;;1.47;;
22417;SDS011;11376;50.932;4.442;2022-12-26T05:01:39;3.07;;;1.77;;
22417;SDS011;11376;50.932;4.442;2022-12-26T05:04:24;4.27;;;2.20;;
22417;SDS011;11376;50.932;4.442;2022-12-26T05:07:11;3.57;;;1.93;;
22417;SDS011;11376;50.932;4.442;2022-12-26T05:10:08;7.17;;;2.30;;
22417;SDS011;11376;50.932;4.442;2022-12-26T05:12:39;4.50;;;1.70;;
22417;SDS011;11376;50.932;4.442;2022-12-26T05:15:05;3.50;;;1.90;;
22417;SDS011;11376;50.932;4.442;2022-12-26T05:17:31;4.17;;;2.23;;
22417;SDS011;11376;50.932;4.442;2022-12-26T05:20:15;2.53;;;1.50;;
22417;SDS011;11376;50.932;4.442;2022-12-26T05:22:59;3.50;;;1.53;;
22417;SDS011;11376;50.932;4.442;2022-12-26T05:25:45;2.97;;;1.53;;
22417;SDS011;11376;50.932;4.442;2022-12-26T05:28:30;3.43;;;1.70;;
22417;SDS011;11376;50.932;4.442;2022-12-26T05:31:14;2.80;;;1.40;;
22417;SDS011;11376;50.932;4.442;2022-12-26T05:33:41;2.50;;;1.30;;
22417;SDS011;11376;50.932;4.442;2022-12-26T05:36:35;4.13;;;1.43;;
22417;SDS011;11376;50.932;4.442;2022-12-26T05:39:04;4.13;;;1.40;;
22417;SDS011;11376;50.932;4.442;2022-12-26T05:41:30;2.27;;;1.10;;
22417;SDS011;11376;50.932;4.442;2022-12-26T05:43:56;5.07;;;1.27;;
22417;SDS011;11376;50.932;4.442;2022-12-26T05:46:21;4.77;;;1.43;;
22417;SDS011;11376;50.932;4.442;2022-12-26T05:48:47;2.80;;;1.30;;
22417;SDS011;11376;50.932;4.442;2022-12-26T05:51:13;1.80;;;0.83;;
22417;SDS011;11376;50.932;4.442;2022-12-26T05:53:39;4.07;;;1.50;;
22417;SDS011;11376;50.932;4.442;2022-12-26T05:56:05;2.57;;;1.13;;
22417;SDS011;11376;50.932;4.442;2022-12-26T05:58:32;3.83;;;1.53;;
22417;SDS011;11376;50.932;4.442;2022-12-26T06:01:05;4.07;;;1.63;;
22417;SDS011;11376;50.932;4.442;2022-12-26T06:03:38;2.77;;;1.40;;
22417;SDS011;11376;50.932;4.442;2022-12-26T06:06:07;3.37;;;1.50;;
22417;SDS011;11376;50.932;4.442;2022-12-26T06:08:33;6.10;;;1.70;;
22417;SDS011;11376;50.932;4.442;2022-12-26T06:11:01;3.40;;;1.87;;
22417;SDS011;11376;50.932;4.442;2022-12-26T06:13:29;2.53;;;1.50;;
22417;SDS011;11376;50.932;4.442;2022-12-26T06:15:55;2.87;;;1.30;;
22417;SDS011;11376;50.932;4.442;2022-12-26T06:18:20;2.27;;;1.30;;
22417;SDS011;11376;50.932;4.442;2022-12-26T06:20:46;6.13;;;1.27;;
22417;SDS011;11376;50.932;4.442;2022-12-26T06:23:11;3.20;;;1.43;;
22417;SDS011;11376;50.932;4.442;2022-12-26T06:25:37;2.93;;;1.20;;
22417;SDS011;11376;50.932;4.442;2022-12-26T06:28:02;3.27;;;1.40;;
22417;SDS011;11376;50.932;4.442;2022-12-26T06:30:28;1.73;;;0.90;;
22417;SDS011;11376;50.932;4.442;2022-12-26T06:32:54;3.03;;;1.10;;
22417;SDS011;11376;50.932;4.442;2022-12-26T06:35:19;2.57;;;1.00;;
22417;SDS011;11376;50.932;4.442;2022-12-26T06:37:45;2.50;;;0.90;;
22417;SDS011;11376;50.932;4.442;2022-12-26T06:40:10;2.70;;;1.20;;
22417;SDS011;11376;50.932;4.442;2022-12-26T06:42:36;2.10;;;0.93;;
22417;SDS011;11376;50.932;4.442;2022-12-26T06:45:01;0.90;;;0.50;;
22417;SDS011;11376;50.932;4.442;2022-12-26T06:47:28;1.50;;;0.90;;
22417;SDS011;11376;50.932;4.442;2022-12-26T06:49:54;2.60;;;0.90;;
22417;SDS011;11376;50.932;4.442;2022-12-26T06:52:19;1.87;;;0.40;;
22417;SDS011;11376;50.932;4.442;2022-12-26T06:54:45;2.70;;;0.87;;
22417;SDS011;11376;50.932;4.442;2022-12-26T06:57:10;2.20;;;0.70;;
22417;SDS011;11376;50.932;4.442;2022-12-26T06:59:36;1.00;;;0.50;;
22417;SDS011;11376;50.932;4.442;2022-12-26T07:02:01;4.73;;;0.70;;
22417;SDS011;11376;50.932;4.442;2022-12-26T07:04:27;1.67;;;0.50;;
22417;SDS011;11376;50.932;4.442;2022-12-26T07:06:52;2.33;;;0.60;;
22417;SDS011;11376;50.932;4.442;2022-12-26T07:09:18;6.23;;;1.00;;
22417;SDS011;11376;50.932;4.442;2022-12-26T07:11:45;2.07;;;0.60;;
22417;SDS011;11376;50.932;4.442;2022-12-26T07:14:13;1.97;;;0.77;;
22417;SDS011;11376;50.932;4.442;2022-12-26T07:16:39;2.87;;;0.77;;
22417;SDS011;11376;50.932;4.442;2022-12-26T07:19:06;1.77;;;0.60;;
22417;SDS011;11376;50.932;4.442;2022-12-26T07:21:33;1.47;;;0.40;;
22417;SDS011;11376;50.932;4.442;2022-12-26T07:23:59;2.70;;;0.73;;
22417;SDS011;11376;50.932;4.442;2022-12-26T07:26:25;3.93;;;0.60;;
22417;SDS011;11376;50.932;4.442;2022-12-26T07:28:54;1.13;;;0.40;;
22417;SDS011;11376;50.932;4.442;2022-12-26T07:31:20;1.70;;;0.60;;
22417;SDS011;11376;50.932;4.442;2022-12-26T07:33:49;0.93;;;0.37;;
22417;SDS011;11376;50.932;4.442;2022-12-26T07:36:17;3.73;;;0.50;;
22417;SDS011;11376;50.932;4.442;2022-12-26T07:38:43;4.57;;;0.80;;
22417;SDS011;11376;50.932;4.442;2022-12-26T07:41:09;2.67;;;0.50;;
22417;SDS011;11376;50.932;4.442;2022-12-26T07:43:53;0.97;;;0.40;;
22417;SDS011;11376;50.932;4.442;2022-12-26T07:46:19;5.63;;;0.60;;
22417;SDS011;11376;50.932;4.442;2022-12-26T07:48:45;3.03;;;0.70;;
22417;SDS011;11376;50.932;4.442;2022-12-26T07:51:11;4.53;;;0.50;;
22417;SDS011;11376;50.932;4.442;2022-12-26T07:53:37;1.73;;;0.40;;
22417;SDS011;11376;50.932;4.442;2022-12-26T07:56:02;3.47;;;0.80;;
22417;SDS011;11376;50.932;4.442;2022-12-26T07:58:28;4.27;;;0.67;;
22417;SDS011;11376;50.932;4.442;2022-12-26T08:00:54;4.50;;;0.60;;
22417;SDS011;11376;50.932;4.442;2022-12-26T08:03:19;2.83;;;0.67;;
22417;SDS011;11376;50.932;4.442;2022-12-26T08:05:45;3.63;;;0.50;;
22417;SDS011;11376;50.932;4.442;2022-12-26T08:08:12;4.20;;;0.60;;
22417;SDS011;11376;50.932;4.442;2022-12-26T08:10:38;1.10;;;0.40;;
22417;SDS011;11376;50.932;4.442;2022-12-26T08:13:03;2.83;;;0.73;;
22417;SDS011;11376;50.932;4.442;2022-12-26T08:15:29;4.63;;;0.83;;
22417;SDS011;11376;50.932;4.442;2022-12-26T08:17:54;2.40;;;0.67;;
22417;SDS011;11376;50.932;4.442;2022-12-26T08:20:20;2.93;;;0.50;;
22417;SDS011;11376;50.932;4.442;2022-12-26T08:22:45;6.20;;;1.00;;
22417;SDS011;11376;50.932;4.442;2022-12-26T08:25:11;4.67;;;0.60;;
22417;SDS011;11376;50.932;4.442;2022-12-26T08:27:37;2.03;;;0.60;;
22417;SDS011;11376;50.932;4.442;2022-12-26T08:30:03;8.20;;;0.93;;
22417;SDS011;11376;50.932;4.442;2022-12-26T08:32:29;5.43;;;0.67;;
22417;SDS011;11376;50.932;4.442;2022-12-26T08:34:54;2.03;;;0.50;;
22417;SDS011;11376;50.932;4.442;2022-12-26T08:37:20;4.93;;;0.90;;
22417;SDS011;11376;50.932;4.442;2022-12-26T08:39:48;4.40;;;0.60;;
22417;SDS011;11376;50.932;4.442;2022-12-26T08:42:14;2.23;;;0.37;;
22417;SDS011;11376;50.932;4.442;2022-12-26T08:44:39;3.37;;;0.70;;
22417;SDS011;11376;50.932;4.442;2022-12-26T08:47:05;3.07;;;0.57;;
22417;SDS011;11376;50.932;4.442;2022-12-26T08:49:30;3.80;;;0.70;;
22417;SDS011;11376;50.932;4.442;2022-12-26T08:51:56;3.27;;;0.57;;
22417;SDS011;11376;50.932;4.442;2022-12-26T08:54:21;3.43;;;0.60;;
22417;SDS011;11376;50.932;4.442;2022-12-26T08:56:47;2.63;;;0.77;;
22417;SDS011;11376;50.932;4.442;2022-12-26T08:59:12;3.77;;;0.80;;
22417;SDS011;11376;50.932;4.442;2022-12-26T09:01:38;5.23;;;0.90;;
22417;SDS011;11376;50.932;4.442;2022-12-26T09:04:04;2.43;;;0.73;;
22417;SDS011;11376;50.932;4.442;2022-12-26T09:06:32;3.57;;;0.80;;
22417;SDS011;11376;50.932;4.442;2022-12-26T09:08:59;5.50;;;0.80;;
22417;SDS011;11376;50.932;4.442;2022-12-26T09:11:25;4.43;;;0.70;;
22417;SDS011;11376;50.932;4.442;2022-12-26T09:13:51;1.93;;;0.60;;
22417;SDS011;11376;50.932;4.442;2022-12-26T09:16:18;3.77;;;0.60;;
22417;SDS011;11376;50.932;4.442;2022-12-26T09:18:56;2.83;;;0.40;;
22417;SDS011;11376;50.932;4.442;2022-12-26T09:21:23;2.50;;;0.60;;
22417;SDS011;11376;50.932;4.442;2022-12-26T09:23:54;3.60;;;0.80;;
22417;SDS011;11376;50.932;4.442;2022-12-26T09:26:24;5.20;;;0.90;;
22417;SDS011;11376;50.932;4.442;2022-12-26T09:28:50;5.80;;;0.80;;
22417;SDS011;11376;50.932;4.442;2022-12-26T09:31:17;5.23;;;1.00;;
22417;SDS011;11376;50.932;4.442;2022-12-26T09:33:45;5.23;;;1.17;;
22417;SDS011;11376;50.932;4.442;2022-12-26T09:36:15;5.97;;;1.53;;
22417;SDS011;11376;50.932;4.442;2022-12-26T09:38:43;5.10;;;0.90;;
22417;SDS011;11376;50.932;4.442;2022-12-26T09:49:29;6.13;;;1.20;;
22417;SDS011;11376;50.932;4.442;2022-12-26T09:52:10;7.20;;;1.30;;
22417;SDS011;11376;50.932;4.442;2022-12-26T09:54:41;5.83;;;1.07;;
22417;SDS011;11376;50.932;4.442;2022-12-26T09:57:14;5.60;;;1.20;;
22417;SDS011;11376;50.932;4.442;2022-12-26T09:59:53;4.43;;;1.00;;
22417;SDS011;11376;50.932;4.442;2022-12-26T10:02:22;11.53;;;1.80;;
22417;SDS011;11376;50.932;4.442;2022-12-26T10:04:48;7.30;;;1.53;;
22417;SDS011;11376;50.932;4.442;2022-12-26T10:07:20;8.20;;;1.57;;
22417;SDS011;11376;50.932;4.442;2022-12-26T10:13:02;10.60;;;1.60;;
22417;SDS011;11376;50.932;4.442;2022-12-26T10:15:42;6.23;;;1.40;;
22417;SDS011;11376;50.932;4.442;2022-12-26T10:21:34;5.17;;;1.33;;
22417;SDS011;11376;50.932;4.442;2022-12-26T10:24:14;4.43;;;1.07;;
22417;SDS011;11376;50.932;4.442;2022-12-26T10:26:43;3.47;;;1.00;;
22417;SDS011;11376;50.932;4.442;2022-12-26T10:31:59;4.30;;;1.10;;
22417;SDS011;11376;50.932;4.442;2022-12-26T10:34:54;6.63;;;1.47;;
22417;SDS011;11376;50.932;4.442;2022-12-26T10:40:16;3.27;;;1.03;;
22417;SDS011;11376;50.932;4.442;2022-12-26T10:42:49;5.13;;;1.30;;
22417;SDS011;11376;50.932;4.442;2022-12-26T10:45:25;3.03;;;1.20;;
22417;SDS011;11376;50.932;4.442;2022-12-26T10:47:56;2.33;;;0.90;;
22417;SDS011;11376;50.932;4.442;2022-12-26T10:50:23;4.43;;;1.20;;
22417;SDS011;11376;50.932;4.442;2022-12-26T10:52:51;3.33;;;0.93;;
22417;SDS011;11376;50.932;4.442;2022-12-26T10:55:18;3.23;;;1.20;;
22417;SDS011;11376;50.932;4.442;2022-12-26T10:57:47;6.37;;;1.50;;
22417;SDS011;11376;50.932;4.442;2022-12-26T11:00:20;7.53;;;1.80;;
22417;SDS011;11376;50.932;4.442;2022-12-26T11:03:00;4.87;;;1.00;;
22417;SDS011;11376;50.932;4.442;2022-12-26T11:05:32;6.80;;;1.00;;
22417;SDS011;11376;50.932;4.442;2022-12-26T11:08:06;4.00;;;0.67;;
22417;SDS011;11376;50.932;4.442;2022-12-26T11:10:39;7.07;;;0.90;;
22417;SDS011;11376;50.932;4.442;2022-12-26T11:13:14;6.10;;;0.80;;
22417;SDS011;11376;50.932;4.442;2022-12-26T11:15:48;9.00;;;0.80;;
22417;SDS011;11376;50.932;4.442;2022-12-26T11:18:19;7.47;;;1.10;;
22417;SDS011;11376;50.932;4.442;2022-12-26T11:20:51;9.37;;;1.20;;
22417;SDS011;11376;50.932;4.442;2022-12-26T11:23:35;7.07;;;1.17;;
22417;SDS011;11376;50.932;4.442;2022-12-26T11:26:01;6.83;;;1.20;;
22417;SDS011;11376;50.932;4.442;2022-12-26T11:28:33;15.83;;;1.83;;
22417;SDS011;11376;50.932;4.442;2022-12-26T11:31:00;6.70;;;1.67;;
22417;SDS011;11376;50.932;4.442;2022-12-26T11:33:31;11.13;;;1.87;;
22417;SDS011;11376;50.932;4.442;2022-12-26T11:36:02;8.57;;;1.40;;
22417;SDS011;11376;50.932;4.442;2022-12-26T11:38:46;9.63;;;1.50;;
22417;SDS011;11376;50.932;4.442;2022-12-26T11:41:40;9.93;;;1.57;;
22417;SDS011;11376;50.932;4.442;2022-12-26T11:46:47;8.27;;;1.60;;
22417;SDS011;11376;50.932;4.442;2022-12-26T11:51:51;11.27;;;1.60;;
22417;SDS011;11376;50.932;4.442;2022-12-26T11:54:18;10.13;;;1.57;;
22417;SDS011;11376;50.932;4.442;2022-12-26T11:56:58;7.80;;;1.40;;
22417;SDS011;11376;50.932;4.442;2022-12-26T11:59:26;9.80;;;1.87;;
22417;SDS011;11376;50.932;4.442;2022-12-26T12:02:12;10.23;;;1.87;;
22417;SDS011;11376;50.932;4.442;2022-12-26T12:04:37;9.33;;;1.73;;
22417;SDS011;11376;50.932;4.442;2022-12-26T12:07:06;14.73;;;1.93;;
22417;SDS011;11376;50.932;4.442;2022-12-26T12:09:41;12.00;;;1.90;;
22417;SDS011;11376;50.932;4.442;2022-12-26T12:12:28;11.73;;;1.97;;
22417;SDS011;11376;50.932;4.442;2022-12-26T12:15:19;13.27;;;1.90;;
22417;SDS011;11376;50.932;4.442;2022-12-26T12:31:52;7.00;;;1.10;;
22417;SDS011;11376;50.932;4.442;2022-12-26T12:37:18;10.00;;;1.70;;
22417;SDS011;11376;50.932;4.442;2022-12-26T12:42:47;12.70;;;1.50;;
22417;SDS011;11376;50.932;4.442;2022-12-26T12:51:12;6.70;;;1.37;;
22417;SDS011;11376;50.932;4.442;2022-12-26T13:02:29;9.20;;;1.70;;
22417;SDS011;11376;50.932;4.442;2022-12-26T13:07:51;15.40;;;2.53;;
22417;SDS011;11376;50.932;4.442;2022-12-26T13:10:26;9.10;;;2.20;;
22417;SDS011;11376;50.932;4.442;2022-12-26T13:12:57;9.53;;;1.50;;
22417;SDS011;11376;50.932;4.442;2022-12-26T13:15:33;11.20;;;1.30;;
22417;SDS011;11376;50.932;4.442;2022-12-26T13:18:10;11.53;;;1.90;;
22417;SDS011;11376;50.932;4.442;2022-12-26T13:20:47;10.37;;;2.37;;
22417;SDS011;11376;50.932;4.442;2022-12-26T13:23:19;16.97;;;2.73;;
22417;SDS011;11376;50.932;4.442;2022-12-26T13:26:41;16.90;;;3.27;;
22417;SDS011;11376;50.932;4.442;2022-12-26T13:29:11;13.10;;;2.13;;
22417;SDS011;11376;50.932;4.442;2022-12-26T13:31:55;13.23;;;1.70;;
22417;SDS011;11376;50.932;4.442;2022-12-26T13:34:22;7.07;;;1.53;;
22417;SDS011;11376;50.932;4.442;2022-12-26T13:36:49;10.30;;;1.97;;
22417;SDS011;11376;50.932;4.442;2022-12-26T13:42:04;10.90;;;1.90;;
22417;SDS011;11376;50.932;4.442;2022-12-26T13:50:54;11.50;;;1.40;;
22417;SDS011;11376;50.932;4.442;2022-12-26T13:55:50;11.77;;;1.60;;
22417;SDS011;11376;50.932;4.442;2022-12-26T14:01:33;12.60;;;2.20;;
22417;SDS011;11376;50.932;4.442;2022-12-26T14:18:30;14.07;;;1.53;;
22417;SDS011;11376;50.932;4.442;2022-12-26T14:21:25;13.07;;;1.67;;
22417;SDS011;11376;50.932;4.442;2022-12-26T14:26:42;12.93;;;1.97;;
22417;SDS011;11376;50.932;4.442;2022-12-26T14:29:40;14.27;;;1.73;;
22417;SDS011;11376;50.932;4.442;2022-12-26T14:35:26;11.07;;;1.70;;
22417;SDS011;11376;50.932;4.442;2022-12-26T14:40:37;7.50;;;1.17;;
22417;SDS011;11376;50.932;4.442;2022-12-26T14:43:39;8.97;;;1.70;;
22417;SDS011;11376;50.932;4.442;2022-12-26T14:46:54;10.23;;;1.43;;
22417;SDS011;11376;50.932;4.442;2022-12-26T14:48:55;9.33;;;1.27;;
22417;SDS011;11376;50.932;4.442;2022-12-26T14:51:41;10.97;;;1.40;;
22417;SDS011;11376;50.932;4.442;2022-12-26T14:56:57;8.63;;;1.40;;
22417;SDS011;11376;50.932;4.442;2022-12-26T14:59:30;7.60;;;1.23;;
22417;SDS011;11376;50.932;4.442;2022-12-26T15:02:22;8.47;;;1.17;;
22417;SDS011;11376;50.932;4.442;2022-12-26T15:05:09;9.13;;;1.00;;
22417;SDS011;11376;50.932;4.442;2022-12-26T15:11:07;8.63;;;1.30;;
22417;SDS011;11376;50.932;4.442;2022-12-26T15:33:01;3.83;;;1.07;;
22417;SDS011;11376;50.932;4.442;2022-12-26T15:35:48;7.33;;;1.20;;
22417;SDS011;11376;50.932;4.442;2022-12-26T15:41:10;8.87;;;1.53;;
22417;SDS011;11376;50.932;4.442;2022-12-26T15:46:27;8.23;;;1.40;;
22417;SDS011;11376;50.932;4.442;2022-12-26T15:49:01;6.30;;;1.53;;
22417;SDS011;11376;50.932;4.442;2022-12-26T15:54:47;8.53;;;2.07;;
22417;SDS011;11376;50.932;4.442;2022-12-26T16:11:19;9.83;;;2.23;;
22417;SDS011;11376;50.932;4.442;2022-12-26T16:14:09;9.30;;;2.03;;
22417;SDS011;11376;50.932;4.442;2022-12-26T16:16:48;9.70;;;2.07;;
22417;SDS011;11376;50.932;4.442;2022-12-26T16:19:18;7.03;;;1.63;;
22417;SDS011;11376;50.932;4.442;2022-12-26T16:21:48;6.63;;;1.73;;
22417;SDS011;11376;50.932;4.442;2022-12-26T16:24:37;8.57;;;1.80;;
22417;SDS011;11376;50.932;4.442;2022-12-26T16:27:05;9.33;;;1.77;;
22417;SDS011;11376;50.932;4.442;2022-12-26T16:29:33;7.47;;;1.77;;
22417;SDS011;11376;50.932;4.442;2022-12-26T16:32:11;8.77;;;1.80;;
22417;SDS011;11376;50.932;4.442;2022-12-26T16:34:40;9.23;;;1.90;;
22417;SDS011;11376;50.932;4.442;2022-12-26T16:37:08;8.83;;;2.70;;
22417;SDS011;11376;50.932;4.442;2022-12-26T16:39:43;9.20;;;2.10;;
22417;SDS011;11376;50.932;4.442;2022-12-26T16:42:27;9.87;;;2.87;;
22417;SDS011;11376;50.932;4.442;2022-12-26T16:44:54;9.13;;;1.80;;
22417;SDS011;11376;50.932;4.442;2022-12-26T16:47:20;10.30;;;1.77;;
22417;SDS011;11376;50.932;4.442;2022-12-26T16:49:47;10.03;;;1.77;;
22417;SDS011;11376;50.932;4.442;2022-12-26T16:52:27;10.57;;;2.07;;
22417;SDS011;11376;50.932;4.442;2022-12-26T16:54:54;13.60;;;2.93;;
22417;SDS011;11376;50.932;4.442;2022-12-26T16:57:19;13.63;;;3.57;;
22417;SDS011;11376;50.932;4.442;2022-12-26T16:59:53;14.93;;;3.47;;
22417;SDS011;11376;50.932;4.442;2022-12-26T17:02:23;11.40;;;2.53;;
22417;SDS011;11376;50.932;4.442;2022-12-26T17:04:53;18.57;;;4.00;;
22417;SDS011;11376;50.932;4.442;2022-12-26T17:07:24;17.27;;;3.80;;
22417;SDS011;11376;50.932;4.442;2022-12-26T17:09:52;17.83;;;5.27;;
22417;SDS011;11376;50.932;4.442;2022-12-26T17:12:25;15.83;;;3.93;;
22417;SDS011;11376;50.932;4.442;2022-12-26T17:14:59;8.53;;;2.60;;
22417;SDS011;11376;50.932;4.442;2022-12-26T17:17:28;8.97;;;1.83;;
22417;SDS011;11376;50.932;4.442;2022-12-26T17:19:56;8.87;;;1.70;;
22417;SDS011;11376;50.932;4.442;2022-12-26T17:22:33;7.07;;;1.70;;
22417;SDS011;11376;50.932;4.442;2022-12-26T17:33:26;8.93;;;1.57;;
22417;SDS011;11376;50.932;4.442;2022-12-26T17:35:55;8.67;;;1.90;;
22417;SDS011;11376;50.932;4.442;2022-12-26T17:38:31;8.13;;;1.90;;
22417;SDS011;11376;50.932;4.442;2022-12-26T17:41:01;8.50;;;1.73;;
22417;SDS011;11376;50.932;4.442;2022-12-26T17:43:32;8.97;;;1.70;;
22417;SDS011;11376;50.932;4.442;2022-12-26T17:46:00;11.93;;;2.73;;
22417;SDS011;11376;50.932;4.442;2022-12-26T17:48:26;11.13;;;2.10;;
22417;SDS011;11376;50.932;4.442;2022-12-26T17:50:53;12.80;;;2.20;;
22417;SDS011;11376;50.932;4.442;2022-12-26T17:53:31;10.57;;;2.20;;
22417;SDS011;11376;50.932;4.442;2022-12-26T17:56:02;12.07;;;3.20;;
22417;SDS011;11376;50.932;4.442;2022-12-26T17:58:30;10.23;;;2.10;;
22417;SDS011;11376;50.932;4.442;2022-12-26T18:00:57;9.50;;;2.00;;
22417;SDS011;11376;50.932;4.442;2022-12-26T18:03:23;7.63;;;1.77;;
22417;SDS011;11376;50.932;4.442;2022-12-26T18:05:49;11.07;;;2.43;;
22417;SDS011;11376;50.932;4.442;2022-12-26T18:08:24;12.47;;;2.30;;
22417;SDS011;11376;50.932;4.442;2022-12-26T18:10:56;8.43;;;1.53;;
22417;SDS011;11376;50.932;4.442;2022-12-26T18:13:22;11.87;;;2.03;;
22417;SDS011;11376;50.932;4.442;2022-12-26T18:15:48;6.13;;;1.43;;
22417;SDS011;11376;50.932;4.442;2022-12-26T18:18:20;12.00;;;2.53;;
22417;SDS011;11376;50.932;4.442;2022-12-26T18:20:58;7.47;;;2.00;;
22417;SDS011;11376;50.932;4.442;2022-12-26T18:23:23;9.73;;;1.63;;
22417;SDS011;11376;50.932;4.442;2022-12-26T18:25:49;12.53;;;2.00;;
22417;SDS011;11376;50.932;4.442;2022-12-26T18:28:16;7.03;;;1.80;;
22417;SDS011;11376;50.932;4.442;2022-12-26T18:30:43;7.87;;;1.43;;
22417;SDS011;11376;50.932;4.442;2022-12-26T18:33:09;6.73;;;1.60;;
22417;SDS011;11376;50.932;4.442;2022-12-26T18:35:39;12.10;;;2.30;;
22417;SDS011;11376;50.932;4.442;2022-12-26T18:38:07;11.60;;;1.73;;
22417;SDS011;11376;50.932;4.442;2022-12-26T18:40:38;7.63;;;1.73;;